createdAt,value
2023-01-21T00:00:39.012Z,26.63
2023-01-21T00:03:05.468Z,25.83
2023-01-21T00:05:32.065Z,24.25
2023-01-21T00:07:58.838Z,25.40
2023-01-21T00:10:26.090Z,25.58
2023-01-21T00:12:52.612Z,26.05
2023-01-21T00:15:19.030Z,25.35
2023-01-21T00:17:45.529Z,26.05
2023-01-21T00:20:13.441Z,25.15
2023-01-21T00:22:39.863Z,25.90
2023-01-21T00:25:06.900Z,25.30
2023-01-21T00:27:33.335Z,26.13
2023-01-21T00:29:59.788Z,24.65
2023-01-21T00:32:26.206Z,25.88
2023-01-21T00:34:52.719Z,27.50
2023-01-21T00:37:19.211Z,25.70
2023-01-21T00:39:45.844Z,27.23
2023-01-21T00:42:12.295Z,27.38
2023-01-21T00:44:39.106Z,27.60
2023-01-21T00:47:06.436Z,27.52
2023-01-21T00:49:33.432Z,28.17
2023-01-21T00:51:59.952Z,28.52
2023-01-21T00:54:26.492Z,28.50
2023-01-21T00:56:52.937Z,26.38
2023-01-21T00:59:19.867Z,29.27
2023-01-21T01:01:46.421Z,27.35
2023-01-21T01:04:13.468Z,26.35
2023-01-21T01:06:40.196Z,28.17
2023-01-21T01:09:06.740Z,28.20
2023-01-21T01:11:33.247Z,26.70
2023-01-21T01:13:59.922Z,27.75
2023-01-21T01:16:26.449Z,26.77
2023-01-21T01:18:52.915Z,26.85
2023-01-21T01:21:22.462Z,27.65
2023-01-21T01:23:54.748Z,26.77
2023-01-21T01:26:22.298Z,26.33
2023-01-21T01:28:48.842Z,25.52
2023-01-21T01:31:17.737Z,27.02
2023-01-21T01:33:44.323Z,26.88
2023-01-21T01:36:16.137Z,26.83
2023-01-21T01:38:42.817Z,27.55
2023-01-21T01:41:15.487Z,27.63
2023-01-21T01:44:20.336Z,28.40
2023-01-21T01:46:46.880Z,27.25
2023-01-21T01:49:21.131Z,26.83
2023-01-21T01:51:56.125Z,27.67
2023-01-21T01:54:32.244Z,25.70
2023-01-21T01:57:01.270Z,28.48
2023-01-21T01:59:29.360Z,26.60
2023-01-21T02:01:58.671Z,27.33
2023-01-21T02:04:29.533Z,28.20
2023-01-21T02:06:57.476Z,27.50
2023-01-21T02:09:29.542Z,27.27
2023-01-21T02:12:01.268Z,28.15
2023-01-21T02:14:29.670Z,26.95
2023-01-21T02:17:24.225Z,27.73
2023-01-21T02:20:16.002Z,27.95
2023-01-21T02:23:08.583Z,28.30
2023-01-21T02:26:05.811Z,28.60
2023-01-21T02:28:45.848Z,29.02
2023-01-21T02:31:34.336Z,27.75
2023-01-21T02:34:14.001Z,28.25
2023-01-21T02:37:00.845Z,27.92
2023-01-21T02:39:50.322Z,28.98
2023-01-21T02:42:47.692Z,29.27
2023-01-21T02:45:39.096Z,28.67
2023-01-21T02:48:29.069Z,28.40
2023-01-21T02:50:56.075Z,27.75
2023-01-21T02:53:27.509Z,29.40
2023-01-21T02:55:56.095Z,28.00
2023-01-21T02:58:28.692Z,29.88
2023-01-21T03:01:37.185Z,29.38
2023-01-21T03:04:38.554Z,28.40
2023-01-21T03:07:22.290Z,28.02
2023-01-21T03:09:48.984Z,28.63
2023-01-21T03:12:43.266Z,29.10
2023-01-21T03:15:48.108Z,29.73
2023-01-21T03:18:33.850Z,28.95
2023-01-21T03:21:07.375Z,28.48
2023-01-21T03:23:41.101Z,28.50
2023-01-21T03:26:10.564Z,27.92
2023-01-21T03:28:44.682Z,29.33
2023-01-21T03:31:33.351Z,27.45
2023-01-21T03:34:06.496Z,28.05
2023-01-21T03:39:45.598Z,28.98
2023-01-21T03:42:13.870Z,28.60
2023-01-21T03:44:41.013Z,29.10
2023-01-21T03:47:31.202Z,28.58
2023-01-21T03:50:04.327Z,29.48
2023-01-21T03:52:31.888Z,28.52
2023-01-21T03:54:58.897Z,29.25
2023-01-21T03:57:25.488Z,28.55
2023-01-21T03:59:53.350Z,27.92
2023-01-21T04:02:21.043Z,27.42
2023-01-21T04:04:48.300Z,29.05
2023-01-21T04:07:16.021Z,29.90
2023-01-21T04:09:42.516Z,27.52
2023-01-21T04:12:09.067Z,31.55
2023-01-21T04:14:35.620Z,29.35
2023-01-21T04:17:02.022Z,29.92
2023-01-21T04:19:28.467Z,32.90
2023-01-21T04:21:54.975Z,32.53
2023-01-21T04:24:21.479Z,31.63
2023-01-21T04:26:48.081Z,33.60
2023-01-21T04:29:14.701Z,33.70
2023-01-21T04:31:41.407Z,33.72
2023-01-21T04:34:07.917Z,31.98
2023-01-21T04:36:34.442Z,33.70
2023-01-21T04:39:01.583Z,33.28
2023-01-21T04:41:28.046Z,33.38
2023-01-21T04:43:54.533Z,31.88
2023-01-21T04:46:21.001Z,30.92
2023-01-21T04:48:47.806Z,33.25
2023-01-21T04:51:14.282Z,32.67
2023-01-21T04:53:40.843Z,31.30
2023-01-21T04:56:07.567Z,32.60
2023-01-21T04:58:34.549Z,32.60
2023-01-21T05:01:01.055Z,30.35
2023-01-21T05:03:27.915Z,32.65
2023-01-21T05:05:54.420Z,31.67
2023-01-21T05:08:21.148Z,32.55
2023-01-21T05:10:47.745Z,33.33
2023-01-21T05:13:14.182Z,32.42
2023-01-21T05:15:40.637Z,32.67
2023-01-21T05:18:07.406Z,33.50
2023-01-21T05:20:33.869Z,33.42
2023-01-21T05:23:00.273Z,33.92
2023-01-21T05:25:26.694Z,33.67
2023-01-21T05:27:55.033Z,34.08
2023-01-21T05:30:22.181Z,33.53
2023-01-21T05:32:54.936Z,34.70
2023-01-21T05:35:23.336Z,34.05
2023-01-21T05:37:50.273Z,32.47
2023-01-21T05:40:17.954Z,34.60
2023-01-21T05:42:45.750Z,33.88
2023-01-21T05:45:12.678Z,34.20
2023-01-21T05:47:39.125Z,34.97
2023-01-21T05:50:06.279Z,33.58
2023-01-21T05:52:32.697Z,33.35
2023-01-21T05:55:02.236Z,32.33
2023-01-21T05:57:30.172Z,32.33
2023-01-21T05:59:56.877Z,33.78
2023-01-21T06:02:23.886Z,31.77
2023-01-21T06:04:50.433Z,32.88
2023-01-21T06:07:17.225Z,33.60
2023-01-21T06:09:43.682Z,31.95
2023-01-21T06:12:10.193Z,31.83
2023-01-21T06:14:36.969Z,32.63
2023-01-21T06:17:03.561Z,32.22
2023-01-21T06:19:30.006Z,33.13
2023-01-21T06:21:56.430Z,34.17
2023-01-21T06:24:22.919Z,33.38
2023-01-21T06:26:49.393Z,34.22
2023-01-21T06:29:16.062Z,33.92
2023-01-21T06:31:42.636Z,35.30
2023-01-21T06:34:09.852Z,34.72
2023-01-21T06:36:36.316Z,34.15
2023-01-21T06:39:02.885Z,36.40
2023-01-21T06:41:29.301Z,37.60
2023-01-21T06:43:55.750Z,38.40
2023-01-21T06:46:22.235Z,37.13
2023-01-21T06:48:48.743Z,37.75
2023-01-21T06:51:15.264Z,37.42
2023-01-21T06:53:41.762Z,36.25
2023-01-21T06:56:08.183Z,36.65
2023-01-21T06:58:34.584Z,38.22
2023-01-21T07:01:01.144Z,37.17
2023-01-21T07:03:27.580Z,38.53
2023-01-21T07:05:54.025Z,39.78
2023-01-21T07:08:20.448Z,36.13
2023-01-21T07:10:47.803Z,36.35
2023-01-21T07:13:14.525Z,38.30
2023-01-21T07:15:41.084Z,37.58
2023-01-21T07:18:07.639Z,37.03
2023-01-21T07:20:34.638Z,38.15
2023-01-21T07:23:01.125Z,38.58
2023-01-21T07:25:27.671Z,37.58
2023-01-21T07:27:54.106Z,40.10
2023-01-21T07:30:21.328Z,39.67
2023-01-21T07:32:47.890Z,39.67
2023-01-21T07:35:14.690Z,41.05
2023-01-21T07:37:41.315Z,39.90
2023-01-21T07:40:08.531Z,41.40
2023-01-21T07:42:34.954Z,39.50
2023-01-21T07:45:03.801Z,38.38
2023-01-21T07:47:30.481Z,41.88
2023-01-21T07:49:56.903Z,40.80
2023-01-21T07:52:23.327Z,39.70
2023-01-21T07:54:49.846Z,40.03
2023-01-21T07:57:16.316Z,39.78
2023-01-21T07:59:43.000Z,41.63
2023-01-21T08:02:11.760Z,40.88
2023-01-21T08:04:38.743Z,41.78
2023-01-21T08:07:11.976Z,40.83
2023-01-21T08:09:39.692Z,41.40
2023-01-21T08:12:07.467Z,41.15
2023-01-21T08:14:34.389Z,41.28
2023-01-21T08:17:01.563Z,41.88
2023-01-21T08:19:28.038Z,44.28
2023-01-21T08:21:54.485Z,42.78
2023-01-21T08:24:21.282Z,44.33
2023-01-21T08:26:48.987Z,44.55
2023-01-21T08:29:15.445Z,44.28
2023-01-21T08:31:42.030Z,44.13
2023-01-21T08:34:08.574Z,45.20
2023-01-21T08:36:35.090Z,48.13
2023-01-21T08:39:01.940Z,45.15
2023-01-21T08:41:28.782Z,46.97
2023-01-21T08:43:55.324Z,46.60
2023-01-21T08:46:21.731Z,44.78
2023-01-21T08:48:48.613Z,45.83
2023-01-21T08:51:15.128Z,44.25
2023-01-21T08:53:41.699Z,44.53
2023-01-21T08:56:08.147Z,46.72
2023-01-21T08:58:34.890Z,44.42
2023-01-21T09:01:10.063Z,45.78
2023-01-21T09:03:37.275Z,46.60
2023-01-21T09:06:05.254Z,45.63
2023-01-21T09:08:32.524Z,46.20
2023-01-21T09:11:03.391Z,43.90
2023-01-21T09:13:38.228Z,42.78
2023-01-21T09:16:13.405Z,41.60
2023-01-21T09:18:40.151Z,43.10
2023-01-21T09:21:07.014Z,41.58
2023-01-21T09:23:34.699Z,41.25
2023-01-21T09:26:03.247Z,41.30
2023-01-21T09:28:31.464Z,38.78
2023-01-21T09:30:59.650Z,41.75
2023-01-21T09:33:27.966Z,39.45
2023-01-21T09:35:55.788Z,39.10
2023-01-21T09:38:23.074Z,40.75
2023-01-21T09:40:49.953Z,39.03
2023-01-21T09:43:28.072Z,38.38
2023-01-21T09:45:59.122Z,40.83
2023-01-21T09:48:31.287Z,41.60
2023-01-21T09:51:02.456Z,40.33
2023-01-21T09:53:46.671Z,39.58
2023-01-21T09:56:31.298Z,38.88
2023-01-21T09:59:08.049Z,39.83
2023-01-21T10:01:38.753Z,38.63
2023-01-21T10:04:37.748Z,41.08
2023-01-21T10:07:14.311Z,40.60
2023-01-21T10:10:02.843Z,40.38
2023-01-21T10:12:40.155Z,41.10
2023-01-21T10:15:35.214Z,41.10
2023-01-21T10:18:04.885Z,41.13
2023-01-21T10:20:37.748Z,38.00
2023-01-21T10:23:21.549Z,39.58
2023-01-21T10:25:49.814Z,40.28
2023-01-21T10:28:24.075Z,41.42
2023-01-21T10:30:58.006Z,40.63
2023-01-21T10:33:26.828Z,41.03
2023-01-21T10:36:24.444Z,40.38
2023-01-21T10:39:03.562Z,41.47
2023-01-21T10:41:50.740Z,41.22
2023-01-21T10:44:43.408Z,40.15
2023-01-21T10:47:09.828Z,40.00
2023-01-21T10:49:45.954Z,39.60
2023-01-21T10:52:45.165Z,40.70
2023-01-21T10:55:59.761Z,39.25
2023-01-21T10:58:32.685Z,39.20
2023-01-21T11:01:03.058Z,37.45
2023-01-21T11:03:43.448Z,35.22
2023-01-21T11:06:13.905Z,36.65
2023-01-21T11:08:43.925Z,37.25
2023-01-21T11:11:12.417Z,38.30
2023-01-21T11:13:41.143Z,36.15
2023-01-21T11:16:08.227Z,33.47
2023-01-21T11:18:42.791Z,33.05
2023-01-21T11:21:18.742Z,31.70
2023-01-21T11:24:03.621Z,31.70
2023-01-21T11:26:35.024Z,30.63
2023-01-21T11:29:13.562Z,29.75
2023-01-21T11:31:42.290Z,29.95
2023-01-21T11:34:15.419Z,30.67
2023-01-21T11:37:05.934Z,28.73
2023-01-21T11:39:35.336Z,26.67
2023-01-21T11:42:08.475Z,27.20
2023-01-21T11:44:34.898Z,26.95
2023-01-21T11:47:01.464Z,27.95
2023-01-21T11:49:31.738Z,27.35
2023-01-21T11:52:19.527Z,27.17
2023-01-21T11:54:47.834Z,27.27
2023-01-21T11:57:32.795Z,25.20
2023-01-21T12:00:07.451Z,26.90
2023-01-21T12:02:47.614Z,25.35
2023-01-21T12:05:29.167Z,27.92
2023-01-21T12:07:56.211Z,27.23
2023-01-21T12:10:42.657Z,26.38
2023-01-21T12:13:17.341Z,26.77
2023-01-21T12:16:06.027Z,26.13
2023-01-21T12:19:07.579Z,25.95
2023-01-21T12:21:55.789Z,26.55
2023-01-21T12:25:06.495Z,25.45
2023-01-21T12:27:50.406Z,25.00
2023-01-21T12:30:32.276Z,24.00
2023-01-21T12:33:03.689Z,23.08
2023-01-21T12:35:39.410Z,24.80
2023-01-21T12:38:13.519Z,24.70
2023-01-21T12:41:01.245Z,24.25
2023-01-21T12:43:37.875Z,24.23
2023-01-21T12:46:11.772Z,23.83
2023-01-21T12:48:48.703Z,22.80
2023-01-21T12:51:27.975Z,24.33
2023-01-21T12:54:19.191Z,23.27
2023-01-21T12:57:18.123Z,22.77
2023-01-21T12:59:53.756Z,23.52
2023-01-21T13:02:35.548Z,22.35
2023-01-21T13:05:23.318Z,21.83
2023-01-21T13:08:27.276Z,22.60
2023-01-21T13:11:03.104Z,22.05
2023-01-21T13:13:42.452Z,22.60
2023-01-21T13:16:11.065Z,21.83
2023-01-21T13:18:41.323Z,19.15
2023-01-21T13:21:21.568Z,20.80
2023-01-21T13:23:54.122Z,20.33
2023-01-21T13:26:46.523Z,20.90
2023-01-21T13:29:40.817Z,18.63
2023-01-21T13:32:29.154Z,19.38
2023-01-21T13:35:15.764Z,18.95
2023-01-21T13:38:04.876Z,19.35
2023-01-21T13:40:47.030Z,19.17
2023-01-21T13:43:28.037Z,18.42
2023-01-21T13:46:20.391Z,19.00
2023-01-21T13:49:33.449Z,19.13
2023-01-21T13:52:03.750Z,19.13
2023-01-21T13:54:45.561Z,18.52
2023-01-21T13:57:15.211Z,17.63
2023-01-21T13:59:47.715Z,18.63
2023-01-21T14:02:28.927Z,18.53
2023-01-21T14:05:22.641Z,18.38
2023-01-21T14:07:52.075Z,17.48
2023-01-21T14:10:29.182Z,17.88
2023-01-21T14:13:14.015Z,18.17
2023-01-21T14:16:02.810Z,18.00
2023-01-21T14:18:52.323Z,16.92
2023-01-21T14:21:31.198Z,17.67
2023-01-21T14:24:35.286Z,17.20
2023-01-21T14:27:26.851Z,18.52
2023-01-21T14:30:05.632Z,18.65
2023-01-21T14:32:41.167Z,17.63
2023-01-21T14:35:13.805Z,17.40
2023-01-21T14:37:44.071Z,15.90
2023-01-21T14:40:17.678Z,16.75
2023-01-21T14:42:45.750Z,16.67
2023-01-21T14:45:14.573Z,18.77
2023-01-21T14:47:53.192Z,19.85
2023-01-21T14:50:46.838Z,18.40
2023-01-21T14:53:25.642Z,20.88
2023-01-21T14:56:16.123Z,23.35
2023-01-21T14:59:04.877Z,19.98
2023-01-21T15:01:43.578Z,18.45
2023-01-21T15:04:35.402Z,19.45
2023-01-21T15:07:09.355Z,18.88
2023-01-21T15:09:41.406Z,19.10
2023-01-21T15:12:15.583Z,20.88
2023-01-21T15:14:43.064Z,19.30
2023-01-21T15:17:47.899Z,19.95
2023-01-21T15:20:42.395Z,19.45
2023-01-21T15:23:30.230Z,19.00
2023-01-21T15:26:02.868Z,19.15
2023-01-21T15:28:44.656Z,19.73
2023-01-21T15:31:20.495Z,19.23
2023-01-21T15:34:00.606Z,17.98
2023-01-21T15:36:31.079Z,18.17
2023-01-21T15:39:16.271Z,19.27
2023-01-21T15:41:54.943Z,17.90
2023-01-21T15:44:46.493Z,17.48
2023-01-21T15:47:31.709Z,16.85
2023-01-21T15:50:04.240Z,16.75
2023-01-21T15:53:01.850Z,17.30
2023-01-21T15:55:59.361Z,17.70
2023-01-21T15:58:51.051Z,17.42
2023-01-21T16:01:37.963Z,16.10
2023-01-21T16:04:17.974Z,15.25
2023-01-21T16:07:10.352Z,13.77
2023-01-21T16:10:11.829Z,14.20
2023-01-21T16:13:04.677Z,13.95
2023-01-21T16:15:37.118Z,14.73
2023-01-21T16:18:40.937Z,14.57
2023-01-21T16:21:07.956Z,14.50
2023-01-21T16:23:39.406Z,14.20
2023-01-21T16:26:05.977Z,14.40
2023-01-21T16:28:44.007Z,14.57
2023-01-21T16:31:10.720Z,14.77
2023-01-21T16:33:37.225Z,15.35
2023-01-21T16:36:07.380Z,14.18
2023-01-21T16:38:36.376Z,13.45
2023-01-21T16:41:15.247Z,14.45
2023-01-21T16:43:48.936Z,14.15
2023-01-21T16:46:18.251Z,13.88
2023-01-21T16:48:50.153Z,15.50
2023-01-21T16:51:23.609Z,14.70
2023-01-21T16:53:53.757Z,12.75
2023-01-21T16:56:28.736Z,10.93
2023-01-21T16:58:58.650Z,11.55
2023-01-21T17:01:27.715Z,11.05
2023-01-21T17:03:55.318Z,9.80
2023-01-21T17:06:29.151Z,10.77
2023-01-21T17:09:00.584Z,12.20
2023-01-21T17:11:27.878Z,12.65
2023-01-21T17:13:54.540Z,14.38
2023-01-21T17:16:30.592Z,14.63
2023-01-21T17:19:01.337Z,14.20
2023-01-21T17:21:40.125Z,14.35
2023-01-21T17:24:36.725Z,13.63
2023-01-21T17:27:10.091Z,13.93
2023-01-21T17:29:37.274Z,13.50
2023-01-21T17:32:05.304Z,13.50
2023-01-21T17:34:36.360Z,12.85
2023-01-21T17:37:05.344Z,13.23
2023-01-21T17:39:47.967Z,13.52
2023-01-21T17:42:23.238Z,13.80
2023-01-21T17:44:53.239Z,14.23
2023-01-21T17:47:59.103Z,13.63
2023-01-21T17:50:29.686Z,14.02
2023-01-21T17:53:06.957Z,15.48
2023-01-21T17:55:36.214Z,14.77
2023-01-21T17:58:05.676Z,14.40
2023-01-21T18:00:36.893Z,13.82
2023-01-21T18:03:03.522Z,14.30
2023-01-21T18:05:30.683Z,14.30
2023-01-21T18:07:57.436Z,15.15
2023-01-21T18:10:29.779Z,16.50
2023-01-21T18:12:58.167Z,15.13
2023-01-21T18:15:25.857Z,15.50
2023-01-21T18:18:02.055Z,16.52
2023-01-21T18:20:30.117Z,17.45
2023-01-21T18:22:58.592Z,16.88
2023-01-21T18:25:27.177Z,16.25
2023-01-21T18:27:57.222Z,16.45
2023-01-21T18:30:27.043Z,16.63
2023-01-21T18:32:54.872Z,16.95
2023-01-21T18:35:26.472Z,16.75
2023-01-21T18:37:53.543Z,16.55
2023-01-21T18:40:22.437Z,17.63
2023-01-21T18:42:55.319Z,16.77
2023-01-21T18:45:25.621Z,17.50
2023-01-21T18:47:52.761Z,17.92
2023-01-21T18:50:22.043Z,17.88
2023-01-21T18:52:49.087Z,17.58
2023-01-21T18:55:17.695Z,18.70
2023-01-21T18:57:48.161Z,18.85
2023-01-21T19:00:20.737Z,19.48
2023-01-21T19:02:47.371Z,18.95
2023-01-21T19:05:14.434Z,18.50
2023-01-21T19:07:41.411Z,18.95
2023-01-21T19:10:13.658Z,19.25
2023-01-21T19:12:40.110Z,18.33
2023-01-21T19:15:08.553Z,20.33
2023-01-21T19:17:35.214Z,20.73
2023-01-21T19:20:01.957Z,21.23
2023-01-21T19:22:28.571Z,22.58
2023-01-21T19:24:55.007Z,20.83
2023-01-21T19:27:42.979Z,22.60
2023-01-21T19:30:19.876Z,22.92
2023-01-21T19:32:46.807Z,24.67
2023-01-21T19:35:17.619Z,25.70
2023-01-21T19:37:49.192Z,25.42
2023-01-21T19:40:19.140Z,26.45
2023-01-21T19:42:46.491Z,25.67
2023-01-21T19:45:14.273Z,25.13
2023-01-21T19:47:43.121Z,24.63
2023-01-21T19:50:23.702Z,25.38
2023-01-21T19:52:51.346Z,25.67
2023-01-21T19:55:23.035Z,27.90
2023-01-21T19:57:56.814Z,26.70
2023-01-21T20:00:24.523Z,28.38
2023-01-21T20:02:51.483Z,27.95
2023-01-21T20:05:18.586Z,26.65
2023-01-21T20:07:47.488Z,27.58
2023-01-21T20:10:16.527Z,28.20
2023-01-21T20:12:46.212Z,28.23
2023-01-21T20:15:14.259Z,28.67
2023-01-21T20:17:43.675Z,27.23
2023-01-21T20:20:18.223Z,27.88
2023-01-21T20:22:45.317Z,27.67
2023-01-21T20:25:17.098Z,28.52
2023-01-21T20:27:49.776Z,27.95
2023-01-21T20:30:18.510Z,27.10
2023-01-21T20:32:45.825Z,26.45
2023-01-21T20:35:15.645Z,27.27
2023-01-21T20:37:45.396Z,27.42
2023-01-21T20:40:22.634Z,26.80
2023-01-21T20:42:50.153Z,27.20
2023-01-21T20:45:18.353Z,27.00
2023-01-21T20:47:51.068Z,27.45
2023-01-21T20:50:21.809Z,27.67
2023-01-21T20:52:49.666Z,26.55
2023-01-21T20:55:20.737Z,26.02
2023-01-21T20:57:47.735Z,27.55
2023-01-21T21:00:17.047Z,26.58
2023-01-21T21:02:43.756Z,27.02
2023-01-21T21:05:11.548Z,27.45
2023-01-21T21:07:38.077Z,25.70
2023-01-21T21:10:05.356Z,28.10
2023-01-21T21:12:31.794Z,26.17
2023-01-21T21:14:58.242Z,26.88
2023-01-21T21:17:24.724Z,27.77
2023-01-21T21:19:51.146Z,28.67
2023-01-21T21:22:17.650Z,29.48
2023-01-21T21:24:44.069Z,29.38
2023-01-21T21:27:11.996Z,28.35
2023-01-21T21:29:38.435Z,30.75
2023-01-21T21:32:06.780Z,28.92
2023-01-21T21:34:34.245Z,27.90
2023-01-21T21:37:00.666Z,27.27
2023-01-21T21:39:27.588Z,26.67
2023-01-21T21:42:15.038Z,26.55
2023-01-21T21:44:43.268Z,25.55
2023-01-21T21:47:31.483Z,28.05
2023-01-21T21:49:58.107Z,26.50
2023-01-21T21:52:24.577Z,28.45
2023-01-21T21:54:51.196Z,27.38
2023-01-21T21:57:17.653Z,26.25
2023-01-21T21:59:44.069Z,28.70
2023-01-21T22:02:12.184Z,27.75
2023-01-21T22:04:38.770Z,27.60
2023-01-21T22:07:05.301Z,27.15
2023-01-21T22:09:33.993Z,27.85
2023-01-21T22:12:01.208Z,28.88
2023-01-21T22:14:27.992Z,26.98
2023-01-21T22:16:54.591Z,27.17
2023-01-21T22:19:21.056Z,27.58
2023-01-21T22:21:47.535Z,27.50
2023-01-21T22:24:15.621Z,27.38
2023-01-21T22:26:42.125Z,28.13
2023-01-21T22:29:08.667Z,28.08
2023-01-21T22:31:35.366Z,28.90
2023-01-21T22:34:01.980Z,27.90
2023-01-21T22:36:30.301Z,27.20
2023-01-21T22:38:57.269Z,29.70
2023-01-21T22:41:25.142Z,28.52
2023-01-21T22:43:52.598Z,29.08
2023-01-21T22:46:22.016Z,28.25
2023-01-21T22:48:49.072Z,28.08
2023-01-21T22:51:18.478Z,29.60
2023-01-21T22:53:45.063Z,27.60
2023-01-21T22:56:13.656Z,29.23
2023-01-21T22:58:40.551Z,27.83
2023-01-21T23:01:08.044Z,28.73
2023-01-21T23:03:34.603Z,30.15
2023-01-21T23:06:08.405Z,28.25
2023-01-21T23:08:37.543Z,29.25
2023-01-21T23:11:06.140Z,28.65
2023-01-21T23:13:33.759Z,27.27
2023-01-21T23:16:01.012Z,28.67
2023-01-21T23:18:28.634Z,26.70
2023-01-21T23:20:55.820Z,26.73
2023-01-21T23:23:22.252Z,26.25
2023-01-21T23:25:49.461Z,27.80
2023-01-21T23:28:15.986Z,27.42
2023-01-21T23:30:42.744Z,26.42
2023-01-21T23:33:11.520Z,26.13
2023-01-21T23:35:37.961Z,26.83
2023-01-21T23:38:04.517Z,25.60
2023-01-21T23:40:31.000Z,25.23
2023-01-21T23:42:57.765Z,25.85
2023-01-21T23:45:24.556Z,26.15
2023-01-21T23:47:51.136Z,25.42
2023-01-21T23:50:17.963Z,26.00
2023-01-21T23:52:44.646Z,25.25
2023-01-21T23:55:11.523Z,26.27
2023-01-21T23:57:37.948Z,26.48
